Time;durP1;ratioP1;P1;durP2;ratioP2;P2;SDS_P1;SDS_P2;PMS_P1;PMS_P2;Temp;Humidity;BMP_temperature;BMP_pressure;BME280_temperature;BME280_humidity;BME280_pressure;Samples;Min_cycle;Max_cycle;Signal;HPM_P1;HPM_P2
2022/11/10 00:00:56;;;;;;;1.53;1.10;;;11.10;98.20;;;;;;4995822;28;20465;-80
2022/11/10 00:03:23;;;;;;;1.53;1.00;;;11.10;98.20;;;;;;4996610;28;20560;-79
2022/11/10 00:05:50;;;;;;;1.57;1.10;;;11.10;98.20;;;;;;4991252;28;20520;-80
2022/11/10 00:08:17;;;;;;;3.57;3.27;;;11.10;98.20;;;;;;4989606;28;20465;-79
2022/11/10 00:16:59;;;;;;;1.53;1.10;;;11.10;98.20;;;;;;4980711;28;20512;-79
2022/11/10 00:19:07;;;;;;;1.57;1.20;;;11.10;98.20;;;;;;4997277;28;20537;-79
2022/11/10 00:21:35;;;;;;;1.57;1.10;;;11.10;98.20;;;;;;4994962;28;20492;-79
2022/11/10 00:24:02;;;;;;;1.53;1.10;;;11.00;98.20;;;;;;4987782;28;20461;-79
2022/11/10 00:26:29;;;;;;;1.60;1.10;;;11.00;98.20;;;;;;4984317;28;20892;-79
2022/11/10 00:28:57;;;;;;;1.60;1.10;;;11.00;98.20;;;;;;4977247;28;20465;-79
2022/11/10 00:31:27;;;;;;;1.60;1.10;;;11.00;98.20;;;;;;4976462;28;20708;-79
2022/11/10 00:33:54;;;;;;;1.60;1.17;;;11.00;98.20;;;;;;4976712;28;20496;-79
2022/11/10 00:36:21;;;;;;;1.57;1.10;;;11.00;98.20;;;;;;4981331;28;20519;-79
2022/11/10 00:38:50;;;;;;;1.57;1.10;;;11.00;98.20;;;;;;4988700;28;20461;-80
2022/11/10 00:41:17;;;;;;;1.53;1.10;;;11.00;98.20;;;;;;4993835;28;21108;-80
2022/11/10 00:43:44;;;;;;;1.60;1.40;;;10.90;98.20;;;;;;4999898;28;20524;-79
2022/11/10 00:46:12;;;;;;;1.60;1.10;;;10.90;98.20;;;;;;5001190;28;20480;-78
2022/11/10 00:48:39;;;;;;;1.53;1.10;;;10.90;98.20;;;;;;4993880;28;20462;-78
2022/11/10 00:51:07;;;;;;;1.60;1.10;;;10.80;98.20;;;;;;4997644;28;20457;-78
2022/11/10 00:53:34;;;;;;;1.60;1.10;;;10.90;98.20;;;;;;4996063;28;20476;-78
2022/11/10 00:56:01;;;;;;;1.57;1.10;;;10.80;98.20;;;;;;4982457;28;20481;-78
2022/11/10 00:58:27;;;;;;;1.60;1.20;;;10.80;98.20;;;;;;4982624;28;20468;-78
2022/11/10 01:01:01;;;;;;;1.60;1.20;;;10.80;98.20;;;;;;4982213;28;20486;-79
2022/11/10 01:03:30;;;;;;;1.53;1.10;;;10.80;98.20;;;;;;4980482;28;20462;-77
2022/11/10 01:05:57;;;;;;;1.57;1.20;;;10.80;98.20;;;;;;4984833;28;20485;-78
2022/11/10 01:08:24;;;;;;;1.57;1.10;;;10.70;98.20;;;;;;4994816;28;20543;-78
2022/11/10 01:10:51;;;;;;;1.60;1.10;;;10.70;98.20;;;;;;4997608;28;20584;-79
2022/11/10 01:13:18;;;;;;;1.60;1.10;;;10.70;98.20;;;;;;4995867;28;20830;-79
2022/11/10 01:15:45;;;;;;;1.60;1.10;;;10.70;98.20;;;;;;4996043;28;20580;-80
2022/11/10 01:18:12;;;;;;;1.53;1.10;;;10.70;98.20;;;;;;4997068;28;20876;-80
2022/11/10 01:20:40;;;;;;;1.60;1.20;;;10.70;98.20;;;;;;4997385;28;20830;-80
2022/11/10 01:23:06;;;;;;;1.60;1.20;;;10.70;98.20;;;;;;4996035;28;20492;-80
2022/11/10 01:25:33;;;;;;;1.60;1.30;;;10.70;98.20;;;;;;4996398;28;20932;-79
2022/11/10 01:28:00;;;;;;;1.60;1.33;;;10.60;98.20;;;;;;4997187;28;20695;-79
2022/11/10 01:30:27;;;;;;;1.60;1.10;;;10.60;98.20;;;;;;4999638;28;20489;-80
2022/11/10 01:32:55;;;;;;;1.57;1.10;;;10.60;98.20;;;;;;5005487;28;20584;-79
2022/11/10 01:35:22;;;;;;;1.60;1.10;;;10.60;98.20;;;;;;5003677;28;20489;-78
2022/11/10 01:37:51;;;;;;;1.57;1.10;;;10.60;98.20;;;;;;4995699;28;20637;-79
2022/11/10 01:40:18;;;;;;;1.60;1.20;;;10.50;98.20;;;;;;4987602;28;20468;-79
2022/11/10 01:42:50;;;;;;;1.60;1.20;;;10.50;98.20;;;;;;4987346;28;20457;-79
2022/11/10 01:45:42;;;;;;;1.57;1.20;;;10.50;98.20;;;;;;4992440;28;20487;-79
2022/11/10 01:48:12;;;;;;;1.60;1.10;;;10.50;98.20;;;;;;5007133;28;20492;-81
2022/11/10 01:50:43;;;;;;;1.57;1.10;;;10.50;98.20;;;;;;5008452;28;20496;-79
2022/11/10 01:53:17;;;;;;;1.60;1.10;;;10.40;98.20;;;;;;5005647;28;20499;-80
2022/11/10 01:55:46;;;;;;;1.57;1.20;;;10.40;98.20;;;;;;5004300;28;20527;-79
2022/11/10 01:58:16;;;;;;;1.57;1.10;;;10.40;98.20;;;;;;5002355;28;20473;-79
2022/11/10 02:00:43;;;;;;;1.60;1.37;;;10.40;98.20;;;;;;5001848;28;20468;-80
2022/11/10 02:03:14;;;;;;;1.50;1.10;;;10.40;98.20;;;;;;5001510;28;20556;-82
2022/11/10 02:05:43;;;;;;;1.60;1.20;;;10.40;98.20;;;;;;4996162;28;20484;-79
2022/11/10 02:08:14;;;;;;;1.60;1.10;;;10.40;98.20;;;;;;4991259;28;20461;-80
2022/11/10 02:10:41;;;;;;;1.60;1.20;;;10.30;98.20;;;;;;4998939;28;20978;-80
2022/11/10 02:13:08;;;;;;;1.57;1.10;;;10.30;98.20;;;;;;4997137;28;20465;-79
2022/11/10 02:15:35;;;;;;;1.53;1.20;;;10.30;98.20;;;;;;4998931;28;20528;-79
2022/11/10 02:18:02;;;;;;;1.60;1.10;;;10.30;98.20;;;;;;4997289;28;20469;-80
2022/11/10 02:20:29;;;;;;;1.57;1.10;;;10.30;98.20;;;;;;4990212;28;20468;-80
2022/11/10 02:22:57;;;;;;;1.60;1.20;;;10.30;98.20;;;;;;4985670;28;20551;-80
2022/11/10 02:25:30;;;;;;;1.60;1.20;;;10.30;98.20;;;;;;4990104;28;20484;-79
2022/11/10 02:27:57;;;;;;;1.60;1.20;;;10.30;98.20;;;;;;4996297;28;20472;-79
2022/11/10 02:30:24;;;;;;;1.57;1.13;;;10.30;98.20;;;;;;4996254;28;20465;-79
2022/11/10 02:32:51;;;;;;;1.57;1.17;;;10.30;98.20;;;;;;4996149;28;20468;-81
2022/11/10 02:35:18;;;;;;;1.53;1.10;;;10.30;98.20;;;;;;4992753;28;20497;-79
2022/11/10 02:37:45;;;;;;;1.60;1.20;;;10.20;98.20;;;;;;4985292;28;21077;-80
2022/11/10 02:40:13;;;;;;;1.60;1.10;;;10.30;98.20;;;;;;4976606;28;20509;-79
2022/11/10 02:42:40;;;;;;;1.57;1.10;;;10.30;98.20;;;;;;4996424;28;20862;-79
2022/11/10 02:45:08;;;;;;;1.60;1.20;;;10.30;98.20;;;;;;4993277;28;20481;-79
2022/11/10 02:47:35;;;;;;;1.60;1.20;;;10.30;98.20;;;;;;4984579;28;20526;-80
2022/11/10 02:50:01;;;;;;;1.60;1.20;;;10.20;98.20;;;;;;4989117;28;20782;-79
2022/11/10 02:52:28;;;;;;;1.57;1.17;;;10.20;98.20;;;;;;4982171;28;20461;-79
2022/11/10 02:54:55;;;;;;;1.60;1.20;;;10.20;98.20;;;;;;4977495;28;20855;-79
2022/11/10 02:57:23;;;;;;;1.57;1.20;;;10.20;98.20;;;;;;4986176;28;20482;-79
2022/11/10 02:59:50;;;;;;;1.60;1.20;;;10.20;98.20;;;;;;4987102;28;20468;-79
2022/11/10 03:02:17;;;;;;;1.60;1.17;;;10.20;98.20;;;;;;4996927;28;20548;-80
2022/11/10 03:04:43;;;;;;;1.60;1.30;;;10.20;98.20;;;;;;4992885;28;20462;-79
2022/11/10 03:07:10;;;;;;;1.60;1.30;;;10.20;98.20;;;;;;4986923;28;20454;-79
2022/11/10 03:09:37;;;;;;;1.60;1.20;;;10.20;98.20;;;;;;4981587;28;20545;-80
2022/11/10 03:12:04;;;;;;;1.60;1.17;;;10.20;98.20;;;;;;4977737;28;20457;-79
2022/11/10 03:14:32;;;;;;;1.60;1.20;;;10.20;98.20;;;;;;4982179;28;20572;-79
2022/11/10 03:16:59;;;;;;;1.60;1.30;;;10.10;98.20;;;;;;4996116;28;20549;-79
2022/11/10 03:19:26;;;;;;;1.57;1.10;;;10.10;98.20;;;;;;4998725;28;20555;-79
2022/11/10 03:21:52;;;;;;;1.57;1.20;;;10.20;98.20;;;;;;4997885;28;20460;-79
2022/11/10 03:24:19;;;;;;;1.60;1.17;;;10.10;98.20;;;;;;4998432;28;20465;-79
2022/11/10 03:26:46;;;;;;;1.60;1.20;;;10.10;98.20;;;;;;4997198;28;20567;-79
2022/11/10 03:29:13;;;;;;;1.60;1.10;;;10.10;98.20;;;;;;4999041;28;20505;-79
2022/11/10 03:31:47;;;;;;;1.57;1.13;;;10.10;98.20;;;;;;4998699;28;20492;-80
2022/11/10 03:34:14;;;;;;;1.57;1.20;;;10.10;98.20;;;;;;4997557;28;20526;-80
2022/11/10 03:36:41;;;;;;;1.60;1.17;;;10.10;98.20;;;;;;4990363;28;20519;-80
2022/11/10 03:39:08;;;;;;;1.60;1.20;;;10.10;98.20;;;;;;4994623;28;20551;-80
2022/11/10 03:41:35;;;;;;;1.60;1.10;;;10.10;98.20;;;;;;4998870;28;20523;-80
2022/11/10 03:44:02;;;;;;;1.60;1.20;;;10.10;98.20;;;;;;4997802;28;20468;-79
2022/11/10 03:46:29;;;;;;;1.60;1.10;;;10.10;98.20;;;;;;4995941;28;20620;-79
2022/11/10 03:48:57;;;;;;;1.60;1.20;;;10.10;98.20;;;;;;4997839;28;20990;-81
2022/11/10 03:51:24;;;;;;;1.60;1.27;;;10.10;98.20;;;;;;4997538;28;20468;-80
2022/11/10 03:53:51;;;;;;;1.57;1.20;;;10.10;98.20;;;;;;4996815;28;20461;-79
2022/11/10 03:56:17;;;;;;;1.60;1.20;;;10.10;98.20;;;;;;4995671;28;20496;-80
2022/11/10 03:58:44;;;;;;;1.60;1.20;;;10.10;98.20;;;;;;4995949;28;20475;-79
2022/11/10 04:01:11;;;;;;;1.60;1.10;;;10.10;98.20;;;;;;4995879;28;20461;-80
2022/11/10 04:03:38;;;;;;;1.57;1.20;;;10.10;98.20;;;;;;4997118;28;20547;-80
2022/11/10 04:09:00;;;;;;;1.60;1.20;;;10.10;98.20;;;;;;4991726;28;20460;-79
2022/11/10 04:16:57;;;;;;;1.60;1.30;;;10.00;98.20;;;;;;4983872;28;20673;-80
2022/11/10 04:19:24;;;;;;;1.60;1.20;;;10.00;98.20;;;;;;4977152;28;20839;-79
2022/11/10 04:21:53;;;;;;;1.50;1.20;;;10.00;98.20;;;;;;4977916;28;20462;-81
2022/11/10 04:24:20;;;;;;;1.60;1.20;;;10.00;98.20;;;;;;4986512;28;20659;-80
2022/11/10 04:26:47;;;;;;;1.60;1.30;;;10.00;98.20;;;;;;4985120;28;21010;-80
2022/11/10 04:29:15;;;;;;;1.60;1.27;;;10.00;98.20;;;;;;4978206;28;20469;-82
2022/11/10 04:31:43;;;;;;;1.60;1.17;;;10.00;98.20;;;;;;4976521;28;20655;-80
2022/11/10 04:34:12;;;;;;;1.60;1.20;;;10.00;98.20;;;;;;4978823;28;20458;-80
2022/11/10 04:36:41;;;;;;;1.60;1.20;;;10.00;98.20;;;;;;4985121;28;20505;-77
2022/11/10 04:39:10;;;;;;;1.60;1.10;;;10.00;98.20;;;;;;4991957;28;20843;-79
2022/11/10 04:41:37;;;;;;;1.60;1.20;;;9.90;98.20;;;;;;5003831;28;20465;-80
2022/11/10 04:44:05;;;;;;;1.60;1.20;;;9.90;98.20;;;;;;4999409;28;20469;-80
2022/11/10 04:46:33;;;;;;;1.60;1.20;;;9.90;98.20;;;;;;4996415;28;20481;-81
2022/11/10 04:49:01;;;;;;;1.60;1.23;;;9.90;98.20;;;;;;4998337;28;20456;-81
2022/11/10 04:51:29;;;;;;;1.60;1.20;;;9.90;98.20;;;;;;4996009;28;20469;-81
2022/11/10 04:53:57;;;;;;;1.60;1.20;;;9.90;98.20;;;;;;4994525;28;20479;-78
2022/11/10 04:56:26;;;;;;;1.60;1.20;;;9.90;98.20;;;;;;4982767;28;20783;-80
2022/11/10 04:58:53;;;;;;;1.57;1.20;;;9.90;98.20;;;;;;4990269;28;20468;-80
2022/11/10 05:01:24;;;;;;;1.60;1.30;;;9.90;98.20;;;;;;4986440;28;20493;-80
2022/11/10 05:03:52;;;;;;;1.60;1.10;;;9.90;98.20;;;;;;4991115;28;20474;-80
2022/11/10 05:06:19;;;;;;;1.60;1.20;;;9.90;98.20;;;;;;4985579;28;20990;-80
2022/11/10 05:08:47;;;;;;;1.57;1.20;;;9.90;98.20;;;;;;4990186;28;20464;-80
2022/11/10 05:11:17;;;;;;;1.60;1.20;;;9.90;98.20;;;;;;4996095;28;20640;-81
2022/11/10 05:13:46;;;;;;;1.60;1.20;;;9.90;98.20;;;;;;4996117;28;20488;-80
2022/11/10 05:16:17;;;;;;;1.57;1.20;;;9.90;98.20;;;;;;4995871;28;20489;-80
2022/11/10 05:18:44;;;;;;;1.57;1.20;;;9.90;98.20;;;;;;4997685;28;20511;-81
2022/11/10 05:21:11;;;;;;;1.57;1.20;;;9.90;98.20;;;;;;4995322;28;20469;-80
2022/11/10 05:23:38;;;;;;;1.60;1.17;;;9.90;98.20;;;;;;4996420;28;20540;-81
2022/11/10 05:26:05;;;;;;;1.57;1.20;;;9.90;98.20;;;;;;4982045;28;20553;-81
2022/11/10 05:28:32;;;;;;;1.60;1.20;;;9.90;98.20;;;;;;4978236;28;20481;-82
2022/11/10 05:31:01;;;;;;;1.60;1.23;;;9.90;98.20;;;;;;4976743;28;20474;-80
2022/11/10 05:33:28;;;;;;;1.60;1.10;;;9.90;98.20;;;;;;4985178;28;20592;-81
2022/11/10 05:35:55;;;;;;;1.60;1.20;;;9.80;98.20;;;;;;4987604;28;20800;-82
2022/11/10 05:38:22;;;;;;;1.60;1.17;;;9.80;98.20;;;;;;4988498;28;20894;-81
2022/11/10 05:40:49;;;;;;;1.60;1.30;;;9.80;98.20;;;;;;4986958;28;20468;-80
2022/11/10 05:43:16;;;;;;;1.60;1.20;;;9.80;98.20;;;;;;4984091;28;20525;-80
2022/11/10 05:45:42;;;;;;;1.60;1.20;;;9.80;98.20;;;;;;4988225;28;20970;-80
2022/11/10 05:48:11;;;;;;;1.60;1.20;;;9.80;98.20;;;;;;4985449;28;20513;-81
2022/11/10 05:50:38;;;;;;;1.60;1.20;;;9.80;98.20;;;;;;4986264;28;20499;-81
2022/11/10 05:53:11;;;;;;;1.60;1.20;;;9.80;98.20;;;;;;4987056;28;20708;-81
2022/11/10 05:55:38;;;;;;;1.57;1.10;;;9.80;98.20;;;;;;4977617;28;20492;-80
2022/11/10 05:58:05;;;;;;;1.60;1.20;;;9.80;98.20;;;;;;4987154;28;20470;-80
2022/11/10 06:00:32;;;;;;;1.60;1.20;;;9.80;98.20;;;;;;4993316;28;20465;-80
2022/11/10 06:03:01;;;;;;;1.60;1.20;;;9.80;98.20;;;;;;4990305;28;20484;-80
2022/11/10 06:05:31;;;;;;;1.60;1.20;;;9.80;98.20;;;;;;4988718;28;20483;-79
2022/11/10 06:07:58;;;;;;;1.60;1.20;;;9.80;98.20;;;;;;4981164;28;20462;-80
2022/11/10 06:10:26;;;;;;;1.60;1.20;;;9.70;98.20;;;;;;4986463;28;20462;-80
2022/11/10 06:12:53;;;;;;;1.60;1.20;;;9.70;98.20;;;;;;4989073;28;20476;-80
2022/11/10 06:15:20;;;;;;;1.60;1.13;;;9.70;98.20;;;;;;4991925;28;20489;-80
2022/11/10 06:17:48;;;;;;;1.60;1.13;;;9.70;98.20;;;;;;4992013;28;20551;-80
2022/11/10 06:20:16;;;;;;;1.60;1.13;;;9.70;98.20;;;;;;4995887;28;20473;-81
2022/11/10 06:22:45;;;;;;;1.53;1.17;;;9.70;98.20;;;;;;4990619;28;20465;-80
2022/11/10 06:25:12;;;;;;;1.93;1.73;;;9.70;98.20;;;;;;4987275;28;20824;-80
2022/11/10 06:27:43;;;;;;;1.60;1.20;;;9.70;98.20;;;;;;4997251;28;20548;-80
2022/11/10 06:30:11;;;;;;;1.57;1.10;;;9.80;98.20;;;;;;4988724;28;20816;-82
2022/11/10 06:32:45;;;;;;;1.60;1.20;;;9.80;98.20;;;;;;4990246;28;20465;-81
2022/11/10 06:35:12;;;;;;;1.60;1.20;;;9.80;98.20;;;;;;4998748;28;20992;-80
2022/11/10 06:37:39;;;;;;;1.60;1.10;;;9.80;98.20;;;;;;4990714;28;21029;-80
2022/11/10 06:40:14;;;;;;;1.57;1.20;;;9.80;98.20;;;;;;4996941;28;20911;-80
2022/11/10 06:42:41;;;;;;;1.60;1.20;;;9.80;98.20;;;;;;5002500;28;20977;-82
2022/11/10 06:45:09;;;;;;;1.60;1.20;;;9.80;98.20;;;;;;5006230;28;20492;-80
2022/11/10 06:47:38;;;;;;;1.60;1.10;;;9.80;98.20;;;;;;4993230;28;20497;-80
2022/11/10 06:50:05;;;;;;;1.60;1.10;;;9.80;98.20;;;;;;4996445;28;20476;-80
2022/11/10 06:52:32;;;;;;;1.60;1.20;;;9.80;98.20;;;;;;4991829;28;20554;-81
2022/11/10 06:54:59;;;;;;;1.53;1.20;;;9.80;98.20;;;;;;4998856;28;20492;-80
2022/11/10 06:57:27;;;;;;;1.60;1.20;;;9.80;98.20;;;;;;4993663;28;20465;-81
2022/11/10 06:59:54;;;;;;;1.60;1.20;;;9.80;98.20;;;;;;4992254;28;20965;-83
2022/11/10 07:02:22;;;;;;;1.60;1.20;;;9.80;98.20;;;;;;4992699;28;20520;-80
2022/11/10 07:04:49;;;;;;;1.57;1.17;;;9.80;98.20;;;;;;4992869;28;20535;-83
2022/11/10 07:07:16;;;;;;;1.57;1.20;;;9.80;98.20;;;;;;4986911;28;20981;-81
2022/11/10 07:09:43;;;;;;;1.60;1.10;;;9.80;98.20;;;;;;4989824;28;20969;-81
2022/11/10 07:12:10;;;;;;;1.57;1.13;;;9.80;98.20;;;;;;4991695;28;20967;-81
2022/11/10 07:14:38;;;;;;;1.60;1.20;;;9.80;98.20;;;;;;4991582;28;20548;-82
2022/11/10 07:17:05;;;;;;;1.60;1.20;;;9.80;98.20;;;;;;4993421;28;20500;-81
2022/11/10 07:19:32;;;;;;;1.60;1.10;;;9.90;98.20;;;;;;4987922;28;20543;-81
2022/11/10 07:21:59;;;;;;;1.57;1.10;;;9.90;98.20;;;;;;4990638;28;20936;-82
2022/11/10 07:24:29;;;;;;;1.57;1.20;;;9.90;98.20;;;;;;4990333;28;20465;-81
2022/11/10 07:26:56;;;;;;;1.60;1.20;;;9.90;98.20;;;;;;4992783;28;21009;-82
2022/11/10 07:29:23;;;;;;;1.60;1.20;;;10.00;98.20;;;;;;4992835;28;20944;-82
2022/11/10 07:31:51;;;;;;;1.60;1.10;;;10.00;98.20;;;;;;4991580;28;20472;-80
2022/11/10 07:34:19;;;;;;;1.57;1.20;;;10.10;98.20;;;;;;4990076;28;20747;-81
2022/11/10 07:36:46;;;;;;;1.57;1.10;;;10.10;98.20;;;;;;4990829;28;20495;-82
2022/11/10 07:39:14;;;;;;;1.53;1.10;;;10.20;98.20;;;;;;4995368;28;20502;-81
2022/11/10 07:41:40;;;;;;;1.57;1.17;;;10.30;98.20;;;;;;4986110;28;20461;-80
2022/11/10 07:44:07;;;;;;;1.60;1.20;;;10.40;98.20;;;;;;4992555;28;20881;-81
2022/11/10 07:46:34;;;;;;;1.57;1.10;;;10.50;98.20;;;;;;4988085;28;20478;-81
2022/11/10 07:49:02;;;;;;;1.57;1.20;;;10.50;98.20;;;;;;4987332;28;20461;-81
2022/11/10 07:51:30;;;;;;;1.60;1.10;;;10.60;98.20;;;;;;4991443;28;20976;-81
2022/11/10 07:53:56;;;;;;;1.50;1.10;;;10.70;98.20;;;;;;4993229;28;20469;-80
2022/11/10 07:56:24;;;;;;;1.60;1.13;;;10.80;98.20;;;;;;4992839;28;20890;-81
2022/11/10 07:58:51;;;;;;;1.50;1.10;;;10.80;98.20;;;;;;4991760;28;20544;-81
2022/11/10 08:01:17;;;;;;;1.60;1.20;;;10.90;98.20;;;;;;4990349;28;20457;-80
2022/11/10 08:03:47;;;;;;;1.60;1.10;;;11.00;98.20;;;;;;4992304;28;20467;-80
2022/11/10 08:06:16;;;;;;;1.60;1.10;;;11.00;98.20;;;;;;4988980;28;20472;-82
2022/11/10 08:08:42;;;;;;;1.60;1.27;;;11.10;98.20;;;;;;4989755;28;20484;-79
2022/11/10 08:11:09;;;;;;;1.50;1.10;;;11.10;98.20;;;;;;4987266;28;20469;-81
2022/11/10 08:13:36;;;;;;;1.60;1.10;;;11.20;98.20;;;;;;4987371;28;20748;-82
2022/11/10 08:16:03;;;;;;;1.60;1.20;;;11.20;98.20;;;;;;4991724;28;20583;-80
2022/11/10 08:18:30;;;;;;;1.60;1.10;;;11.30;98.20;;;;;;4982323;28;20473;-81
2022/11/10 08:20:59;;;;;;;1.60;1.10;;;11.30;98.20;;;;;;4994764;28;20496;-81
2022/11/10 08:23:28;;;;;;;1.57;1.10;;;11.40;98.20;;;;;;5002429;28;20473;-80
2022/11/10 08:25:59;;;;;;;1.60;1.20;;;11.30;98.20;;;;;;4978481;28;20532;-82
2022/11/10 08:28:26;;;;;;;1.60;1.10;;;11.30;98.20;;;;;;5002550;28;20465;-84
2022/11/10 08:30:53;;;;;;;1.57;1.10;;;11.40;98.20;;;;;;4976961;28;20958;-83
2022/11/10 08:33:21;;;;;;;1.60;1.20;;;11.40;98.20;;;;;;4984081;28;20454;-82
2022/11/10 08:35:52;;;;;;;1.60;1.10;;;11.50;98.20;;;;;;4950984;28;20490;-83
2022/11/10 08:38:20;;;;;;;1.60;1.20;;;11.60;98.20;;;;;;4983883;28;21011;-81
2022/11/10 08:40:49;;;;;;;1.60;1.10;;;11.70;98.20;;;;;;4949785;28;21031;-84
2022/11/10 08:43:17;;;;;;;1.53;1.10;;;11.70;98.20;;;;;;4968204;28;20561;-82
2022/11/10 08:45:45;;;;;;;1.57;1.10;;;11.80;98.20;;;;;;4962471;28;20881;-81
2022/11/10 08:48:13;;;;;;;1.60;1.20;;;11.90;98.20;;;;;;4943861;28;20493;-82
2022/11/10 08:50:41;;;;;;;1.60;1.10;;;12.00;98.20;;;;;;4955687;28;20473;-82
2022/11/10 08:53:11;;;;;;;1.50;1.10;;;12.00;98.20;;;;;;4993066;28;20960;-82
2022/11/10 08:55:46;;;;;;;1.60;1.10;;;12.20;98.20;;;;;;4974584;28;20544;-82
2022/11/10 08:58:17;;;;;;;1.53;1.00;;;12.30;98.20;;;;;;4962802;28;20568;-82
2022/11/10 09:00:44;;;;;;;1.60;1.10;;;12.40;98.20;;;;;;4975835;28;20498;-82
2022/11/10 09:03:13;;;;;;;1.60;1.07;;;12.50;98.20;;;;;;4994692;28;20481;-81
2022/11/10 09:05:40;;;;;;;1.60;1.30;;;12.60;98.20;;;;;;4977058;28;20485;-82
2022/11/10 09:08:08;;;;;;;1.57;1.00;;;12.60;98.20;;;;;;4996312;28;20487;-81
2022/11/10 09:10:37;;;;;;;1.57;1.10;;;12.70;98.20;;;;;;4993228;28;20496;-81
2022/11/10 09:13:04;;;;;;;1.70;1.40;;;12.80;98.20;;;;;;5009485;28;20758;-80
2022/11/10 09:15:33;;;;;;;1.53;1.00;;;12.80;98.20;;;;;;4987891;28;21048;-82
2022/11/10 09:18:01;;;;;;;1.60;1.10;;;12.90;98.20;;;;;;4983865;28;21000;-79
2022/11/10 09:20:29;;;;;;;1.60;1.10;;;12.90;98.20;;;;;;4975391;28;20464;-80
2022/11/10 09:22:56;;;;;;;1.50;1.10;;;13.00;98.20;;;;;;4978842;28;20493;-81
2022/11/10 09:25:23;;;;;;;1.53;1.00;;;13.10;98.20;;;;;;4955697;28;20903;-79
2022/11/10 09:27:50;;;;;;;1.57;1.00;;;13.20;98.20;;;;;;4974628;28;20576;-81
2022/11/10 09:30:17;;;;;;;1.57;1.00;;;13.30;98.20;;;;;;4974164;28;20517;-79
2022/11/10 09:32:46;;;;;;;1.60;1.10;;;13.40;98.20;;;;;;4985792;23;20888;-81
2022/11/10 09:35:13;;;;;;;1.60;1.10;;;13.50;98.20;;;;;;4982422;28;20488;-79
2022/11/10 09:37:40;;;;;;;1.50;1.00;;;13.60;98.20;;;;;;4989749;28;20484;-82
2022/11/10 09:40:16;;;;;;;1.53;1.00;;;13.70;98.20;;;;;;4973068;28;20466;-81
2022/11/10 09:42:43;;;;;;;1.57;1.00;;;13.80;98.20;;;;;;4973037;28;20480;-81
2022/11/10 09:45:21;;;;;;;1.60;1.10;;;13.90;98.20;;;;;;4951796;28;20463;-79
2022/11/10 09:47:58;;;;;;;1.60;1.00;;;14.00;98.20;;;;;;4968426;28;20485;-81
2022/11/10 09:50:32;;;;;;;1.57;1.00;;;14.10;98.20;;;;;;4962289;28;20504;-77
2022/11/10 09:53:00;;;;;;;1.53;1.00;;;14.20;98.20;;;;;;4986494;28;20562;-82
2022/11/10 09:55:34;;;;;;;1.53;1.00;;;14.40;98.20;;;;;;4978814;28;20684;-78
2022/11/10 09:58:02;;;;;;;1.57;1.00;;;14.40;98.20;;;;;;4979966;28;20476;-78
2022/11/10 10:00:33;;;;;;;1.53;1.00;;;14.50;98.20;;;;;;4974831;28;20466;-78
2022/11/10 10:03:04;;;;;;;1.60;1.00;;;14.60;98.20;;;;;;4994960;28;20502;-78
2022/11/10 10:05:54;;;;;;;1.53;1.00;;;14.70;98.20;;;;;;4986368;28;20465;-78
2022/11/10 10:08:31;;;;;;;1.57;1.00;;;14.80;98.20;;;;;;4979505;28;20487;-78
2022/11/10 10:11:07;;;;;;;1.60;1.00;;;14.90;98.20;;;;;;4973286;28;20464;-77
2022/11/10 10:14:04;;;;;;;1.60;1.00;;;15.00;98.20;;;;;;4987946;28;20515;-78
2022/11/10 10:16:40;;;;;;;1.53;1.00;;;15.10;98.20;;;;;;4984533;28;20483;-77
2022/11/10 10:19:19;;;;;;;1.50;1.00;;;15.20;98.20;;;;;;4992169;28;20463;-77
2022/11/10 10:21:58;;;;;;;1.57;1.00;;;15.30;98.20;;;;;;4977407;28;20595;-78
2022/11/10 10:24:29;;;;;;;1.53;1.00;;;15.30;98.20;;;;;;4989757;28;20472;-78
2022/11/10 10:26:58;;;;;;;1.57;1.00;;;15.40;98.20;;;;;;4981022;28;20569;-78
2022/11/10 10:29:30;;;;;;;1.60;1.00;;;15.60;98.20;;;;;;4996648;28;20465;-80
2022/11/10 10:31:59;;;;;;;1.60;1.03;;;15.60;98.20;;;;;;4982197;28;21005;-80
2022/11/10 10:34:33;;;;;;;1.57;1.00;;;15.70;98.20;;;;;;4984121;28;20485;-80
2022/11/10 10:37:00;;;;;;;1.57;1.00;;;15.90;98.20;;;;;;4978143;28;20542;-78
2022/11/10 10:39:33;;;;;;;1.57;1.00;;;16.10;98.20;;;;;;4987274;28;20824;-81
2022/11/10 10:42:00;;;;;;;1.60;1.00;;;16.10;98.20;;;;;;4974087;28;20482;-79
2022/11/10 10:44:27;;;;;;;1.60;1.00;;;16.20;98.20;;;;;;4976849;28;20469;-77
2022/11/10 10:46:57;;;;;;;1.57;0.90;;;16.20;98.20;;;;;;4976421;28;20479;-78
2022/11/10 10:49:25;;;;;;;1.60;1.00;;;16.20;98.20;;;;;;4978679;28;20474;-77
2022/11/10 10:52:04;;;;;;;1.60;1.00;;;16.30;98.20;;;;;;4977307;28;20493;-78
2022/11/10 10:54:33;;;;;;;1.53;0.90;;;16.40;98.20;;;;;;4986008;28;20462;-79
2022/11/10 10:57:06;;;;;;;1.53;1.00;;;16.50;98.20;;;;;;4974882;28;20531;-76
2022/11/10 10:59:33;;;;;;;1.57;0.90;;;16.60;98.20;;;;;;4991201;28;21102;-76
2022/11/10 11:02:00;;;;;;;1.53;1.00;;;16.60;98.20;;;;;;4982936;28;20486;-78
2022/11/10 11:04:32;;;;;;;1.57;1.00;;;16.70;98.20;;;;;;4993466;28;20468;-78
2022/11/10 11:07:03;;;;;;;1.53;1.00;;;16.70;97.90;;;;;;4976471;28;20492;-78
2022/11/10 11:09:38;;;;;;;1.60;1.00;;;16.80;98.10;;;;;;4982276;28;20743;-77
2022/11/10 11:12:08;;;;;;;1.50;0.90;;;16.90;97.70;;;;;;4980988;28;20483;-77
2022/11/10 11:14:35;;;;;;;1.53;1.00;;;16.90;97.80;;;;;;4992083;28;20728;-76
2022/11/10 11:17:03;;;;;;;1.57;0.93;;;16.90;96.30;;;;;;4977578;28;20491;-77
2022/11/10 11:19:32;;;;;;;1.53;1.00;;;16.80;97.10;;;;;;4991667;28;20470;-76
2022/11/10 11:22:28;;;;;;;1.57;0.93;;;16.70;96.80;;;;;;4983615;28;21390;-78
2022/11/10 11:25:01;;;;;;;1.50;1.00;;;16.60;97.70;;;;;;4992654;28;20475;-77
2022/11/10 11:27:36;;;;;;;1.60;1.00;;;16.70;98.20;;;;;;4988305;28;20476;-77
2022/11/10 11:30:10;;;;;;;1.50;1.00;;;16.70;96.80;;;;;;4986899;28;20539;-77
2022/11/10 11:33:03;;;;;;;1.60;1.00;;;16.80;96.90;;;;;;4987679;28;20689;-77
2022/11/10 11:35:37;;;;;;;1.57;1.00;;;16.80;96.30;;;;;;4978438;28;20907;-78
2022/11/10 11:38:13;;;;;;;1.53;1.00;;;16.90;96.40;;;;;;4988119;28;20978;-76
2022/11/10 11:40:48;;;;;;;1.57;1.00;;;16.90;96.10;;;;;;4978525;28;20476;-77
2022/11/10 11:43:39;;;;;;;1.57;1.00;;;17.00;95.80;;;;;;4946835;28;20565;-77
2022/11/10 11:46:16;;;;;;;1.53;1.00;;;17.00;95.10;;;;;;4955643;28;20494;-77
2022/11/10 11:49:02;;;;;;;1.57;1.00;;;17.00;94.90;;;;;;4984453;28;20485;-79
2022/11/10 11:51:38;;;;;;;1.50;1.00;;;16.90;95.10;;;;;;4974096;28;20522;-78
2022/11/10 11:54:22;;;;;;;1.57;1.00;;;16.90;94.60;;;;;;4993704;28;20485;-76
2022/11/10 11:56:50;;;;;;;1.53;0.93;;;16.80;94.60;;;;;;4980558;28;20643;-77
2022/11/10 11:59:35;;;;;;;1.53;0.90;;;16.80;95.50;;;;;;4986613;28;20508;-77
2022/11/10 12:02:24;;;;;;;1.50;0.97;;;16.80;94.90;;;;;;4979763;28;20492;-77
2022/11/10 12:05:03;;;;;;;1.57;0.90;;;16.80;95.20;;;;;;4982032;28;20466;-79
2022/11/10 12:07:44;;;;;;;1.57;1.00;;;16.90;94.90;;;;;;4986239;28;20477;-78
2022/11/10 12:10:31;;;;;;;1.50;0.90;;;16.90;95.00;;;;;;4984019;28;20464;-80
2022/11/10 12:13:19;;;;;;;1.50;0.90;;;16.90;94.60;;;;;;4973161;28;20998;-79
2022/11/10 12:15:53;;;;;;;1.60;1.00;;;17.00;94.60;;;;;;4961391;28;20562;-80
2022/11/10 12:18:30;;;;;;;1.50;0.90;;;17.00;94.30;;;;;;5001122;28;20528;-79
2022/11/10 12:21:10;;;;;;;1.50;0.90;;;17.00;93.90;;;;;;4977444;28;20463;-75
2022/11/10 12:23:46;;;;;;;1.53;1.00;;;17.00;94.40;;;;;;4982402;28;20481;-78
2022/11/10 12:26:24;;;;;;;1.60;1.00;;;17.00;93.30;;;;;;4973692;28;20475;-80
2022/11/10 12:28:56;;;;;;;1.50;0.93;;;17.10;94.10;;;;;;4998630;28;20468;-77
2022/11/10 12:31:27;;;;;;;1.50;0.90;;;17.20;93.50;;;;;;4983878;28;20628;-78
2022/11/10 12:33:59;;;;;;;1.57;1.00;;;17.30;93.30;;;;;;4986353;28;20493;-78
2022/11/10 12:36:28;;;;;;;1.50;0.90;;;17.50;93.00;;;;;;4972246;28;20893;-75
2022/11/10 12:38:59;;;;;;;1.60;1.00;;;17.60;91.70;;;;;;4990524;28;20497;-82
2022/11/10 12:41:33;;;;;;;1.50;0.90;;;17.70;91.50;;;;;;4976669;28;20488;-79
2022/11/10 12:44:12;;;;;;;1.50;0.90;;;17.80;91.00;;;;;;4993137;28;20846;-80
2022/11/10 12:46:39;;;;;;;1.57;1.00;;;17.90;91.00;;;;;;4973493;28;20484;-79
2022/11/10 12:49:17;;;;;;;1.50;0.90;;;17.90;91.40;;;;;;4982040;28;20937;-80
2022/11/10 12:51:51;;;;;;;1.50;1.00;;;18.00;90.90;;;;;;4980846;28;20488;-78
2022/11/10 12:54:19;;;;;;;1.57;1.00;;;18.10;91.40;;;;;;4985907;28;20485;-79
2022/11/10 12:56:51;;;;;;;1.57;1.00;;;18.20;90.10;;;;;;4980872;28;20579;-79
2022/11/10 12:59:33;;;;;;;1.57;0.90;;;18.30;90.20;;;;;;4982304;28;20469;-80
2022/11/10 13:02:04;;;;;;;1.50;1.00;;;18.30;89.50;;;;;;4975236;28;20485;-78
2022/11/10 13:04:31;;;;;;;1.57;1.00;;;18.40;90.40;;;;;;4964684;28;20562;-80
2022/11/10 13:07:01;;;;;;;1.50;0.90;;;18.40;90.40;;;;;;4985431;22;20611;-79
2022/11/10 13:09:30;;;;;;;1.53;0.90;;;18.40;90.80;;;;;;4951053;28;20463;-78
2022/11/10 13:12:15;;;;;;;1.60;1.00;;;18.40;89.50;;;;;;4938401;28;20996;-79
2022/11/10 13:14:43;;;;;;;1.57;1.00;;;18.40;88.80;;;;;;4945340;29;21047;-80